createdAt,value
2022-08-30T00:00:44.045Z,18.30
2022-08-30T00:03:15.145Z,18.30
2022-08-30T00:05:45.148Z,18.20
2022-08-30T00:08:15.538Z,18.20
2022-08-30T00:10:44.887Z,18.20
2022-08-30T00:13:15.369Z,18.20
2022-08-30T00:15:44.816Z,18.10
2022-08-30T00:18:13.414Z,18.10
2022-08-30T00:20:42.131Z,18.10
2022-08-30T00:23:10.529Z,18.00
2022-08-30T00:25:40.741Z,18.00
2022-08-30T00:28:09.770Z,18.00
2022-08-30T00:30:38.814Z,18.00
2022-08-30T00:33:07.451Z,18.00
2022-08-30T00:35:36.293Z,18.00
2022-08-30T00:38:04.695Z,18.00
2022-08-30T00:40:33.433Z,18.00
2022-08-30T00:43:06.298Z,17.90
2022-08-30T00:45:38.191Z,18.00
2022-08-30T00:48:07.847Z,18.00
2022-08-30T00:50:43.348Z,17.90
2022-08-30T00:53:16.788Z,17.90
2022-08-30T00:55:46.063Z,17.90
2022-08-30T00:58:21.822Z,17.80
2022-08-30T01:00:53.295Z,17.80
2022-08-30T01:03:22.489Z,17.80
2022-08-30T01:05:52.636Z,17.70
2022-08-30T01:08:22.399Z,17.70
2022-08-30T01:10:52.652Z,17.70
2022-08-30T01:13:23.490Z,17.70
2022-08-30T01:15:52.836Z,17.60
2022-08-30T01:18:23.181Z,17.60
2022-08-30T01:21:02.709Z,17.60
2022-08-30T01:23:35.055Z,17.50
2022-08-30T01:26:06.292Z,17.50
2022-08-30T01:28:35.810Z,17.50
2022-08-30T01:31:04.756Z,17.50
2022-08-30T01:33:33.464Z,17.50
2022-08-30T01:36:06.704Z,17.50
2022-08-30T01:38:39.979Z,17.40
2022-08-30T01:41:13.665Z,17.60
2022-08-30T01:43:42.811Z,17.40
2022-08-30T01:46:12.112Z,17.40
2022-08-30T01:48:42.293Z,17.60
2022-08-30T01:51:18.820Z,17.40
2022-08-30T01:53:48.720Z,17.40
2022-08-30T01:56:17.167Z,17.30
2022-08-30T01:58:46.882Z,17.30
2022-08-30T02:01:18.022Z,17.30
2022-08-30T02:03:47.514Z,17.30
2022-08-30T02:06:19.149Z,17.30
2022-08-30T02:08:49.615Z,17.30
2022-08-30T02:11:19.723Z,17.30
2022-08-30T02:13:48.322Z,17.20
2022-08-30T02:16:23.011Z,17.20
2022-08-30T02:18:52.625Z,17.20
2022-08-30T02:21:21.769Z,17.20
2022-08-30T02:23:51.648Z,17.20
2022-08-30T02:26:20.813Z,17.10
2022-08-30T02:28:50.474Z,17.10
2022-08-30T02:31:20.660Z,17.10
2022-08-30T02:33:52.127Z,17.10
2022-08-30T02:36:22.331Z,17.10
2022-08-30T02:38:53.647Z,17.10
2022-08-30T02:41:23.601Z,17.20
2022-08-30T02:43:58.382Z,17.00
2022-08-30T02:46:27.149Z,17.00
2022-08-30T02:49:13.212Z,17.00
2022-08-30T02:51:50.587Z,17.20
2022-08-30T02:54:20.761Z,16.90
2022-08-30T02:56:49.718Z,16.90
2022-08-30T02:59:20.046Z,16.90
2022-08-30T03:01:49.078Z,16.90
2022-08-30T03:04:17.522Z,16.90
2022-08-30T03:06:46.136Z,16.80
2022-08-30T03:09:14.515Z,16.80
2022-08-30T03:11:44.908Z,16.80
2022-08-30T03:14:13.215Z,16.80
2022-08-30T03:16:41.616Z,16.80
2022-08-30T03:19:09.978Z,16.80
2022-08-30T03:21:39.181Z,16.70
2022-08-30T03:24:08.450Z,16.70
2022-08-30T03:26:36.873Z,16.70
2022-08-30T03:29:06.994Z,16.60
2022-08-30T03:31:40.674Z,16.60
2022-08-30T03:34:22.719Z,16.70
2022-08-30T03:36:51.507Z,16.70
2022-08-30T03:39:20.016Z,16.50
2022-08-30T03:41:48.637Z,16.50
2022-08-30T03:44:18.460Z,16.50
2022-08-30T03:46:46.789Z,16.50
2022-08-30T03:49:15.383Z,16.40
2022-08-30T03:51:44.224Z,16.40
2022-08-30T03:54:12.872Z,16.40
2022-08-30T03:56:41.892Z,16.30
2022-08-30T03:59:10.744Z,16.30
2022-08-30T04:01:42.082Z,16.30
2022-08-30T04:04:10.575Z,16.30
2022-08-30T04:06:39.193Z,16.30
2022-08-30T04:09:08.313Z,16.30
2022-08-30T04:11:36.736Z,16.30
2022-08-30T04:14:05.214Z,16.20
2022-08-30T04:16:33.702Z,16.20
2022-08-30T04:19:03.578Z,16.30
2022-08-30T04:21:32.191Z,16.20
2022-08-30T04:24:03.939Z,16.20
2022-08-30T04:26:32.283Z,16.10
2022-08-30T04:29:00.588Z,16.20
2022-08-30T04:31:29.000Z,16.10
2022-08-30T04:33:57.293Z,16.10
2022-08-30T04:36:26.976Z,16.10
2022-08-30T04:38:55.419Z,16.10
2022-08-30T04:41:24.532Z,16.10
2022-08-30T04:43:52.939Z,16.10
2022-08-30T04:46:21.759Z,16.10
2022-08-30T04:48:50.807Z,16.10
2022-08-30T04:51:19.819Z,16.00
2022-08-30T04:53:49.553Z,16.00
2022-08-30T04:56:22.404Z,16.00
2022-08-30T04:58:55.149Z,16.00
2022-08-30T05:01:26.995Z,16.00
2022-08-30T05:03:56.861Z,16.00
2022-08-30T05:06:27.526Z,16.00
2022-08-30T05:08:57.455Z,16.00
2022-08-30T05:11:25.824Z,16.00
2022-08-30T05:13:54.205Z,16.00
2022-08-30T05:16:22.701Z,16.00
2022-08-30T05:18:52.862Z,16.00
2022-08-30T05:21:23.887Z,16.00
2022-08-30T05:23:57.094Z,16.00
2022-08-30T05:26:29.027Z,16.00
2022-08-30T05:28:57.823Z,16.00
2022-08-30T05:31:30.339Z,16.10
2022-08-30T05:33:59.698Z,16.10
2022-08-30T05:36:32.295Z,16.10
2022-08-30T05:39:02.273Z,16.10
2022-08-30T05:41:35.429Z,16.10
2022-08-30T05:44:08.813Z,16.20
2022-08-30T05:46:39.593Z,16.20
2022-08-30T05:49:09.734Z,16.20
2022-08-30T05:51:41.131Z,16.30
2022-08-30T05:54:15.424Z,16.30
2022-08-30T05:56:47.064Z,16.30
2022-08-30T05:59:16.626Z,16.40
2022-08-30T06:01:47.861Z,16.50
2022-08-30T06:04:16.975Z,16.50
2022-08-30T06:06:46.193Z,16.50
2022-08-30T06:09:16.844Z,16.50
2022-08-30T06:11:46.219Z,16.60
2022-08-30T06:14:15.658Z,16.60
2022-08-30T06:16:45.900Z,16.60
2022-08-30T06:19:16.182Z,16.80
2022-08-30T06:21:45.775Z,16.70
2022-08-30T06:24:15.836Z,16.70
2022-08-30T06:26:47.488Z,16.70
2022-08-30T06:29:20.980Z,17.00
2022-08-30T06:31:50.238Z,16.90
2022-08-30T06:34:19.052Z,16.80
2022-08-30T06:36:47.439Z,16.80
2022-08-30T06:39:17.146Z,16.90
2022-08-30T06:41:45.480Z,16.90
2022-08-30T06:44:25.697Z,16.90
2022-08-30T06:46:54.130Z,16.90
2022-08-30T06:49:22.579Z,16.90
2022-08-30T06:51:51.515Z,16.90
2022-08-30T06:54:21.269Z,17.00
2022-08-30T06:56:58.113Z,17.00
2022-08-30T06:59:28.048Z,17.00
2022-08-30T07:01:56.586Z,17.00
2022-08-30T07:04:25.996Z,17.10
2022-08-30T07:06:54.420Z,17.10
2022-08-30T07:09:24.149Z,17.20
2022-08-30T07:11:54.179Z,17.30
2022-08-30T07:14:23.279Z,17.30
2022-08-30T07:16:52.285Z,17.40
2022-08-30T07:19:21.037Z,17.50
2022-08-30T07:21:50.774Z,17.70
2022-08-30T07:24:21.611Z,17.70
2022-08-30T07:26:52.548Z,17.70
2022-08-30T07:29:21.558Z,17.90
2022-08-30T07:31:50.129Z,18.00
2022-08-30T07:34:20.553Z,18.10
2022-08-30T07:36:51.044Z,18.20
2022-08-30T07:39:19.757Z,18.40
2022-08-30T07:41:50.890Z,18.40
2022-08-30T07:44:19.664Z,18.50
2022-08-30T07:46:51.668Z,18.70
2022-08-30T07:49:20.634Z,18.70
2022-08-30T07:51:49.099Z,18.80
2022-08-30T07:54:17.431Z,18.90
2022-08-30T07:56:45.900Z,19.00
2022-08-30T07:59:15.594Z,19.10
2022-08-30T08:01:44.002Z,19.20
2022-08-30T08:04:12.512Z,19.30
2022-08-30T08:06:41.894Z,19.40
2022-08-30T08:09:10.521Z,19.40
2022-08-30T08:11:39.867Z,19.50
2022-08-30T08:14:08.854Z,19.60
2022-08-30T08:16:39.392Z,19.60
2022-08-30T08:19:09.292Z,19.70
2022-08-30T08:21:38.423Z,19.80
2022-08-30T08:24:07.924Z,19.80
2022-08-30T08:26:37.833Z,19.90
2022-08-30T08:29:08.279Z,20.00
2022-08-30T08:31:38.757Z,20.10
2022-08-30T08:34:07.305Z,20.10
2022-08-30T08:36:36.676Z,20.20
2022-08-30T08:39:07.887Z,20.40
2022-08-30T08:41:52.061Z,20.50
2022-08-30T08:44:37.275Z,20.50
2022-08-30T08:47:16.369Z,20.50
2022-08-30T08:49:50.572Z,20.60
2022-08-30T08:52:43.363Z,20.70
2022-08-30T08:55:16.317Z,20.70
2022-08-30T08:57:44.789Z,20.80
2022-08-30T09:00:33.837Z,21.00
2022-08-30T09:03:05.356Z,21.10
2022-08-30T09:05:40.985Z,21.10
2022-08-30T09:08:15.125Z,21.20
2022-08-30T09:10:52.087Z,21.50
2022-08-30T09:13:22.824Z,21.40
2022-08-30T09:15:54.994Z,21.50
2022-08-30T09:18:45.349Z,21.50
2022-08-30T09:21:16.074Z,21.80
2022-08-30T09:23:56.020Z,21.70
2022-08-30T09:26:31.955Z,22.00
2022-08-30T09:29:01.086Z,21.90
2022-08-30T09:31:32.237Z,22.10
2022-08-30T09:34:06.561Z,22.20
2022-08-30T09:36:41.740Z,22.30
2022-08-30T09:39:20.636Z,22.40
2022-08-30T09:41:50.946Z,22.50
2022-08-30T09:44:22.560Z,22.60
2022-08-30T09:46:53.753Z,22.70
2022-08-30T09:49:38.537Z,22.80
2022-08-30T09:52:34.070Z,22.80
2022-08-30T09:55:19.751Z,23.10
2022-08-30T09:58:00.656Z,23.10
2022-08-30T10:00:32.668Z,23.20
2022-08-30T10:03:35.863Z,23.30
2022-08-30T10:06:23.102Z,23.40
2022-08-30T10:09:02.901Z,23.50
2022-08-30T10:11:40.775Z,23.60
2022-08-30T10:14:40.267Z,23.80
2022-08-30T10:17:21.103Z,23.80
2022-08-30T10:20:11.652Z,24.00
2022-08-30T10:22:46.656Z,24.10
2022-08-30T10:25:20.375Z,24.30
2022-08-30T10:27:55.882Z,24.30
2022-08-30T10:30:24.542Z,24.40
2022-08-30T10:33:01.685Z,24.60
2022-08-30T10:35:38.764Z,24.80
2022-08-30T10:38:17.443Z,24.80
2022-08-30T10:41:11.732Z,24.90
2022-08-30T10:43:52.781Z,25.30
2022-08-30T10:46:31.652Z,25.30
2022-08-30T10:49:03.197Z,25.50
2022-08-30T10:51:38.030Z,25.60
2022-08-30T10:54:18.590Z,25.80
2022-08-30T10:56:52.491Z,26.00
2022-08-30T10:59:22.123Z,26.10
2022-08-30T11:02:20.057Z,26.30
2022-08-30T11:05:25.054Z,26.40
2022-08-30T11:08:08.231Z,26.50
2022-08-30T11:11:03.745Z,26.60
2022-08-30T11:13:34.160Z,26.70
2022-08-30T11:16:06.352Z,26.80
2022-08-30T11:18:44.708Z,26.80
2022-08-30T11:21:28.160Z,26.90
2022-08-30T11:24:10.789Z,27.00
2022-08-30T11:27:02.464Z,27.10
2022-08-30T11:29:39.349Z,27.20
2022-08-30T11:33:00.014Z,27.40
2022-08-30T11:35:48.098Z,27.60
2022-08-30T11:38:59.625Z,27.80
2022-08-30T11:41:41.433Z,28.00
2022-08-30T11:44:29.389Z,28.20
2022-08-30T11:46:59.275Z,28.30
2022-08-30T11:49:55.404Z,28.30
2022-08-30T11:52:42.012Z,28.40
2022-08-30T11:55:50.021Z,28.40
2022-08-30T11:58:34.363Z,28.50
2022-08-30T12:01:49.867Z,28.60
2022-08-30T12:04:37.413Z,28.70
2022-08-30T12:07:08.615Z,28.80
2022-08-30T12:10:06.961Z,28.90
2022-08-30T12:13:01.475Z,29.00
2022-08-30T12:15:57.143Z,29.10
2022-08-30T12:18:43.199Z,29.20
2022-08-30T12:21:29.506Z,29.30
2022-08-30T12:24:07.732Z,29.30
2022-08-30T12:26:39.511Z,29.40
2022-08-30T12:29:18.987Z,29.50
2022-08-30T12:31:52.562Z,29.50
2022-08-30T12:34:27.339Z,29.60
2022-08-30T12:37:03.060Z,29.60
2022-08-30T12:39:37.319Z,29.70
2022-08-30T12:42:20.703Z,29.70
2022-08-30T12:44:51.026Z,29.80
2022-08-30T12:47:25.605Z,29.80
2022-08-30T12:49:57.675Z,29.80
2022-08-30T12:52:33.981Z,29.90
2022-08-30T12:55:17.291Z,29.90
2022-08-30T12:58:01.354Z,29.90
2022-08-30T13:00:33.062Z,29.80
2022-08-30T13:03:25.234Z,29.90
2022-08-30T13:05:57.516Z,29.80
2022-08-30T13:08:36.783Z,29.80
2022-08-30T13:11:10.227Z,29.90
2022-08-30T13:13:44.486Z,29.80
2022-08-30T13:16:26.359Z,29.80
2022-08-30T13:18:57.271Z,29.70
2022-08-30T13:21:30.503Z,29.70
2022-08-30T13:24:01.871Z,29.60
2022-08-30T13:26:34.299Z,29.60
2022-08-30T13:29:10.272Z,29.50
2022-08-30T13:31:39.054Z,29.50
2022-08-30T13:34:07.520Z,29.40
2022-08-30T13:36:49.028Z,29.40
2022-08-30T13:39:18.115Z,29.30
2022-08-30T13:41:50.125Z,29.30
2022-08-30T13:44:20.126Z,29.20
2022-08-30T13:46:55.408Z,29.20
2022-08-30T13:49:43.773Z,29.10
2022-08-30T13:52:21.443Z,29.20
2022-08-30T13:54:51.608Z,29.10
2022-08-30T14:00:17.942Z,29.00
2022-08-30T14:02:54.087Z,28.90
2022-08-30T14:05:47.778Z,28.90
2022-08-30T14:11:06.435Z,28.90
2022-08-30T14:13:35.016Z,28.80
2022-08-30T14:18:57.377Z,28.80
2022-08-30T14:21:26.059Z,28.80
2022-08-30T14:23:57.688Z,28.80
2022-08-30T14:26:32.511Z,28.80
2022-08-30T14:29:03.011Z,28.80
2022-08-30T14:31:32.817Z,28.80
2022-08-30T14:34:03.337Z,28.80
2022-08-30T14:36:33.024Z,28.80
2022-08-30T14:39:08.457Z,28.80
2022-08-30T14:41:44.322Z,28.80
2022-08-30T14:44:13.640Z,28.80
2022-08-30T14:46:42.808Z,28.80
2022-08-30T14:49:12.218Z,28.80
2022-08-30T14:51:41.253Z,28.70
2022-08-30T14:54:11.722Z,28.60
2022-08-30T14:56:41.497Z,28.60
2022-08-30T14:59:10.411Z,28.50
2022-08-30T15:01:43.062Z,28.50
2022-08-30T15:04:13.059Z,28.50
2022-08-30T15:06:45.684Z,28.40
2022-08-30T15:09:23.226Z,28.30
2022-08-30T15:11:53.421Z,28.40
2022-08-30T15:14:23.625Z,28.30
2022-08-30T15:16:55.076Z,28.30
2022-08-30T15:19:23.585Z,28.20
2022-08-30T15:21:52.707Z,28.20
2022-08-30T15:24:29.808Z,28.20
2022-08-30T15:26:59.895Z,28.10
2022-08-30T15:29:30.685Z,28.10
2022-08-30T15:32:03.604Z,28.10
2022-08-30T15:34:34.589Z,28.00
2022-08-30T15:37:03.986Z,28.00
2022-08-30T15:39:33.923Z,28.10
2022-08-30T15:42:02.318Z,27.90
2022-08-30T15:44:31.769Z,27.90
2022-08-30T15:47:00.508Z,27.90
2022-08-30T15:49:29.957Z,27.80
2022-08-30T15:52:02.322Z,27.80
2022-08-30T15:54:31.576Z,27.80
2022-08-30T15:57:01.482Z,27.70
2022-08-30T15:59:32.508Z,27.70
2022-08-30T16:02:01.065Z,27.70
2022-08-30T16:04:30.000Z,27.60
2022-08-30T16:06:58.299Z,27.60
2022-08-30T16:09:30.029Z,27.60
2022-08-30T16:12:02.823Z,27.50
2022-08-30T16:14:33.699Z,27.50
2022-08-30T16:17:02.761Z,27.40
2022-08-30T16:19:31.421Z,27.40
2022-08-30T16:22:00.348Z,27.40
2022-08-30T16:24:28.749Z,27.40
2022-08-30T16:26:57.135Z,27.30
2022-08-30T16:29:27.059Z,27.30
2022-08-30T16:31:56.693Z,27.30
2022-08-30T16:34:26.076Z,27.30
2022-08-30T16:36:54.472Z,27.30
2022-08-30T16:39:22.792Z,27.20
2022-08-30T16:41:51.129Z,27.10
2022-08-30T16:44:19.643Z,27.10
2022-08-30T16:46:53.102Z,27.10
2022-08-30T16:49:24.854Z,27.00
2022-08-30T16:51:54.565Z,27.00
2022-08-30T16:54:23.368Z,27.00
2022-08-30T16:56:52.345Z,26.90
2022-08-30T16:59:46.201Z,26.90
2022-08-30T17:02:15.998Z,26.80
2022-08-30T17:04:44.324Z,26.70
2022-08-30T17:07:13.808Z,26.70
2022-08-30T17:09:42.991Z,26.60
2022-08-30T17:12:11.391Z,26.60
2022-08-30T17:14:39.679Z,26.50
2022-08-30T17:17:09.137Z,26.50
2022-08-30T17:19:43.085Z,26.40
2022-08-30T17:22:12.416Z,26.40
2022-08-30T17:24:42.255Z,26.30
2022-08-30T17:27:12.019Z,26.20
2022-08-30T17:29:40.601Z,26.10
2022-08-30T17:32:08.955Z,26.20
2022-08-30T17:34:38.789Z,26.00
2022-08-30T17:37:08.231Z,26.00
2022-08-30T17:39:37.967Z,25.90
2022-08-30T17:42:07.849Z,25.80
2022-08-30T17:44:38.057Z,25.70
2022-08-30T17:47:11.081Z,25.70
2022-08-30T17:49:40.890Z,25.60
2022-08-30T17:52:11.446Z,25.50
2022-08-30T17:54:40.574Z,25.50
2022-08-30T17:57:11.461Z,25.40
2022-08-30T17:59:41.284Z,25.30
2022-08-30T18:02:11.120Z,25.30
2022-08-30T18:04:42.186Z,25.20
2022-08-30T18:07:12.077Z,25.10
2022-08-30T18:09:41.519Z,25.00
2022-08-30T18:12:10.880Z,25.00
2022-08-30T18:14:40.375Z,25.00
2022-08-30T18:17:09.171Z,24.90
2022-08-30T18:19:46.425Z,24.90
2022-08-30T18:22:17.671Z,24.80
2022-08-30T18:24:47.871Z,24.90
2022-08-30T18:27:16.552Z,24.80
2022-08-30T18:29:44.896Z,24.70
2022-08-30T18:32:13.198Z,24.60
2022-08-30T18:34:42.821Z,24.60
2022-08-30T18:37:12.428Z,24.60
2022-08-30T18:39:42.910Z,24.60
2022-08-30T18:42:11.693Z,24.50
2022-08-30T18:44:40.429Z,24.40
2022-08-30T18:47:12.936Z,24.40
2022-08-30T18:49:41.426Z,24.30
2022-08-30T18:52:11.170Z,24.30
2022-08-30T18:54:44.181Z,24.30
2022-08-30T18:57:15.524Z,24.30
2022-08-30T18:59:43.989Z,24.30
2022-08-30T19:02:17.503Z,24.20
2022-08-30T19:04:47.164Z,24.10
2022-08-30T19:07:18.754Z,24.10
2022-08-30T19:09:49.419Z,24.00
2022-08-30T19:12:19.641Z,24.00
2022-08-30T19:14:49.465Z,24.00
2022-08-30T19:17:17.829Z,24.00
2022-08-30T19:19:49.321Z,24.00
2022-08-30T19:22:22.322Z,23.90
2022-08-30T19:24:53.649Z,23.90
2022-08-30T19:27:37.141Z,23.80
2022-08-30T19:30:08.770Z,23.80
2022-08-30T19:32:37.500Z,23.70
2022-08-30T19:35:06.673Z,23.70
2022-08-30T19:37:35.301Z,23.60
2022-08-30T19:40:10.124Z,23.50
2022-08-30T19:42:45.795Z,23.50
2022-08-30T19:45:18.114Z,23.40
2022-08-30T19:47:47.034Z,23.40
2022-08-30T19:50:16.715Z,23.30
2022-08-30T19:52:52.731Z,23.30
2022-08-30T19:55:28.510Z,23.20
2022-08-30T19:57:58.695Z,23.20
2022-08-30T20:00:27.460Z,23.20
2022-08-30T20:02:59.982Z,23.10
2022-08-30T20:05:30.217Z,23.30
2022-08-30T20:07:59.102Z,23.10
2022-08-30T20:10:28.860Z,23.20
2022-08-30T20:12:57.393Z,23.00
2022-08-30T20:15:26.353Z,23.00
2022-08-30T20:18:13.413Z,23.00
2022-08-30T20:20:49.545Z,22.90
2022-08-30T20:23:21.453Z,22.90
2022-08-30T20:25:53.170Z,22.90
2022-08-30T20:28:21.930Z,22.80
2022-08-30T20:30:51.310Z,22.80
2022-08-30T20:33:20.885Z,22.70
2022-08-30T20:35:50.010Z,22.70
2022-08-30T20:38:22.187Z,22.70
2022-08-30T20:40:56.576Z,22.90
2022-08-30T20:43:29.303Z,22.60
2022-08-30T20:45:58.486Z,22.70
2022-08-30T20:48:28.807Z,22.60
2022-08-30T20:50:57.508Z,22.50
2022-08-30T20:53:26.248Z,22.60
2022-08-30T20:55:56.010Z,22.50
2022-08-30T20:58:25.056Z,22.40
2022-08-30T21:00:55.601Z,22.40
2022-08-30T21:03:25.949Z,22.40
2022-08-30T21:05:56.911Z,22.40
2022-08-30T21:08:26.518Z,22.40
2022-08-30T21:10:56.932Z,22.20
2022-08-30T21:13:25.390Z,22.20
2022-08-30T21:15:57.609Z,22.30
2022-08-30T21:18:32.780Z,22.10
2022-08-30T21:21:07.999Z,22.10
2022-08-30T21:23:37.649Z,22.20
2022-08-30T21:26:08.943Z,21.90
2022-08-30T21:28:37.450Z,21.90
2022-08-30T21:31:12.714Z,22.00
2022-08-30T21:33:42.365Z,21.80
2022-08-30T21:36:29.295Z,21.90
2022-08-30T21:39:00.893Z,21.80
2022-08-30T21:41:31.937Z,21.90
2022-08-30T21:44:02.625Z,21.90
2022-08-30T21:46:32.682Z,21.70
2022-08-30T21:49:03.759Z,21.70
2022-08-30T21:51:36.227Z,21.60
2022-08-30T21:54:07.241Z,21.60
2022-08-30T21:56:38.521Z,21.60
2022-08-30T21:59:08.576Z,21.60
2022-08-30T22:01:38.282Z,21.50
2022-08-30T22:04:10.024Z,21.50
2022-08-30T22:06:40.900Z,21.50
2022-08-30T22:09:13.918Z,21.50
2022-08-30T22:11:45.500Z,21.70
2022-08-30T22:14:15.910Z,21.50
2022-08-30T22:16:46.346Z,21.40
2022-08-30T22:19:16.937Z,21.40
2022-08-30T22:21:48.410Z,21.30
2022-08-30T22:24:17.176Z,21.30
2022-08-30T22:26:47.516Z,21.20
2022-08-30T22:29:16.362Z,21.30
2022-08-30T22:31:44.815Z,21.20
2022-08-30T22:34:13.524Z,21.40
2022-08-30T22:36:41.863Z,21.10
2022-08-30T22:39:10.826Z,21.30
2022-08-30T22:41:41.432Z,21.10
2022-08-30T22:44:12.020Z,21.10
2022-08-30T22:46:40.675Z,21.20
2022-08-30T22:49:11.089Z,20.90
2022-08-30T22:51:40.726Z,20.90
2022-08-30T22:54:10.691Z,21.10
2022-08-30T22:56:40.645Z,20.80
2022-08-30T22:59:10.434Z,20.80
2022-08-30T23:01:43.098Z,20.80
2022-08-30T23:04:13.174Z,20.70
2022-08-30T23:06:49.822Z,20.90
2022-08-30T23:09:18.708Z,20.70
2022-08-30T23:11:47.132Z,20.70
2022-08-30T23:14:16.804Z,20.60
2022-08-30T23:16:45.270Z,20.60
2022-08-30T23:19:14.075Z,20.50
2022-08-30T23:21:42.445Z,20.50
2022-08-30T23:24:28.531Z,20.50
2022-08-30T23:27:14.501Z,20.50
2022-08-30T23:30:01.650Z,20.40
2022-08-30T23:32:47.719Z,20.40
2022-08-30T23:35:33.569Z,20.30
2022-08-30T23:38:23.582Z,20.30
2022-08-30T23:41:09.687Z,20.20
2022-08-30T23:43:56.451Z,20.20
2022-08-30T23:46:43.766Z,20.20
2022-08-30T23:49:29.751Z,20.20
2022-08-30T23:52:15.951Z,20.10
2022-08-30T23:55:01.900Z,20.00
2022-08-30T23:57:47.992Z,20.00
